Time;durP1;ratioP1;P1;durP2;ratioP2;P2;SDS_P1;SDS_P2;PMS_P1;PMS_P2;Temp;Humidity;BMP_temperature;BMP_pressure;BME280_temperature;BME280_humidity;BME280_pressure;Samples;Min_cycle;Max_cycle;Signal;HPM_P1;HPM_P2
2024/01/29 00:01:00;;;;;;;7.40;3.10;;;;;;;;;;5008393;28;20034;-83
2024/01/29 00:03:26;;;;;;;5.43;3.22;;;;;;;;;;4994552;28;20034;-83
2024/01/29 00:05:52;;;;;;;6.95;2.92;;;;;;;;;;4997563;28;20029;-86
2024/01/29 00:08:18;;;;;;;6.85;3.10;;;;;;;;;;5009457;28;20132;-84
2024/01/29 00:10:44;;;;;;;6.07;2.97;;;;;;;;;;4997098;28;20037;-84
2024/01/29 00:13:11;;;;;;;4.97;2.72;;;;;;;;;;5006241;28;20029;-84
2024/01/29 00:15:37;;;;;;;7.85;3.15;;;;;;;;;;5007350;28;20034;-83
2024/01/29 00:18:03;;;;;;;6.53;3.05;;;;;;;;;;5008770;28;20531;-84
2024/01/29 00:20:29;;;;;;;6.18;2.92;;;;;;;;;;5005651;28;20030;-84
2024/01/29 00:22:55;;;;;;;6.82;2.75;;;;;;;;;;5009605;28;20088;-83
2024/01/29 00:25:21;;;;;;;6.60;2.92;;;;;;;;;;5006301;28;20484;-82
2024/01/29 00:27:47;;;;;;;4.75;2.95;;;;;;;;;;4999785;28;20510;-83
2024/01/29 00:30:13;;;;;;;5.57;2.90;;;;;;;;;;5011337;28;20059;-84
2024/01/29 00:32:40;;;;;;;5.68;2.72;;;;;;;;;;5008994;28;20125;-83
2024/01/29 00:35:07;;;;;;;8.88;3.17;;;;;;;;;;5004910;28;20025;-83
2024/01/29 00:37:33;;;;;;;5.40;3.30;;;;;;;;;;5003682;28;20072;-82
2024/01/29 00:39:59;;;;;;;6.97;2.90;;;;;;;;;;5010525;28;20157;-83
2024/01/29 00:42:25;;;;;;;6.40;2.80;;;;;;;;;;4998342;28;20022;-81
2024/01/29 00:44:52;;;;;;;4.90;3.05;;;;;;;;;;5001334;28;20045;-83
2024/01/29 00:47:20;;;;;;;6.07;3.30;;;;;;;;;;5004684;28;20037;-83
2024/01/29 00:49:47;;;;;;;5.38;3.30;;;;;;;;;;5010166;28;20502;-83
2024/01/29 00:52:13;;;;;;;8.40;2.78;;;;;;;;;;5007974;28;20092;-84
2024/01/29 00:54:40;;;;;;;6.20;3.00;;;;;;;;;;5012795;28;20032;-84
2024/01/29 00:57:06;;;;;;;4.65;2.95;;;;;;;;;;5004744;28;20124;-83
2024/01/29 00:59:32;;;;;;;5.60;2.60;;;;;;;;;;5013939;28;20033;-83
2024/01/29 01:01:58;;;;;;;7.10;2.88;;;;;;;;;;5015734;28;20037;-82
2024/01/29 01:04:24;;;;;;;9.77;2.92;;;;;;;;;;5001944;28;20044;-82
2024/01/29 01:06:50;;;;;;;5.13;3.00;;;;;;;;;;5006639;28;20898;-84
2024/01/29 01:09:16;;;;;;;5.53;3.22;;;;;;;;;;5010807;28;20049;-83
2024/01/29 01:11:42;;;;;;;7.60;3.42;;;;;;;;;;5012101;28;20026;-83
2024/01/29 01:14:08;;;;;;;12.65;4.53;;;;;;;;;;5017924;28;20098;-87
2024/01/29 01:16:34;;;;;;;7.72;2.90;;;;;;;;;;5016805;28;20443;-83
2024/01/29 01:19:00;;;;;;;6.78;4.10;;;;;;;;;;5008786;28;20030;-85
2024/01/29 01:21:26;;;;;;;10.70;3.08;;;;;;;;;;5011504;28;20069;-83
2024/01/29 01:23:52;;;;;;;6.38;3.40;;;;;;;;;;5012074;28;20084;-82
2024/01/29 01:26:18;;;;;;;6.15;3.75;;;;;;;;;;5010309;28;20072;-83
2024/01/29 01:28:44;;;;;;;7.00;3.70;;;;;;;;;;4995936;28;20065;-85
2024/01/29 01:31:11;;;;;;;4.78;3.05;;;;;;;;;;5005974;28;20330;-83
2024/01/29 01:33:37;;;;;;;5.90;3.75;;;;;;;;;;4996626;28;20026;-83
2024/01/29 01:36:03;;;;;;;8.02;3.05;;;;;;;;;;5012217;28;20049;-83
2024/01/29 01:38:29;;;;;;;5.28;3.30;;;;;;;;;;4994817;28;21627;-83
2024/01/29 01:40:55;;;;;;;6.40;3.78;;;;;;;;;;5011990;28;20464;-82
2024/01/29 01:43:23;;;;;;;7.95;4.30;;;;;;;;;;5010066;28;20496;-85
2024/01/29 01:46:12;;;;;;;6.18;3.75;;;;;;;;;;5001324;28;20026;-82
2024/01/29 01:48:38;;;;;;;7.82;3.60;;;;;;;;;;5005950;28;20123;-83
2024/01/29 01:51:04;;;;;;;5.60;3.25;;;;;;;;;;5025001;28;20034;-83
2024/01/29 01:53:35;;;;;;;5.55;3.55;;;;;;;;;;5024131;28;20041;-82
2024/01/29 01:56:02;;;;;;;5.50;3.10;;;;;;;;;;5007019;28;20045;-82
2024/01/29 01:58:28;;;;;;;6.57;3.25;;;;;;;;;;5003808;28;20037;-81
2024/01/29 02:00:56;;;;;;;8.30;3.85;;;;;;;;;;5009776;28;20030;-83
2024/01/29 02:03:22;;;;;;;9.57;3.50;;;;;;;;;;5001569;28;20030;-84
2024/01/29 02:05:48;;;;;;;5.82;3.15;;;;;;;;;;4998731;28;20034;-84
2024/01/29 02:08:15;;;;;;;7.68;3.60;;;;;;;;;;4993055;28;20046;-85
2024/01/29 02:10:41;;;;;;;5.88;4.13;;;;;;;;;;5006090;28;20506;-85
2024/01/29 02:13:14;;;;;;;5.88;3.55;;;;;;;;;;4997264;28;20453;-85
2024/01/29 02:15:41;;;;;;;6.45;3.25;;;;;;;;;;5008857;28;20022;-84
2024/01/29 02:18:07;;;;;;;7.32;3.58;;;;;;;;;;5023103;28;20543;-84
2024/01/29 02:20:34;;;;;;;6.50;3.90;;;;;;;;;;4998112;28;20351;-85
2024/01/29 02:23:00;;;;;;;5.30;3.25;;;;;;;;;;5008510;28;20025;-85
2024/01/29 02:25:26;;;;;;;9.07;3.30;;;;;;;;;;5005484;28;20030;-82
2024/01/29 02:27:52;;;;;;;4.97;3.20;;;;;;;;;;5004547;28;20038;-83
2024/01/29 02:30:18;;;;;;;8.05;3.83;;;;;;;;;;5007212;28;20492;-84
2024/01/29 02:32:44;;;;;;;7.82;4.65;;;;;;;;;;5009410;28;20041;-83
2024/01/29 02:35:11;;;;;;;14.88;4.47;;;;;;;;;;5004625;28;20030;-83
2024/01/29 02:37:37;;;;;;;7.72;3.35;;;;;;;;;;5023208;28;20080;-83
2024/01/29 02:40:04;;;;;;;7.32;3.55;;;;;;;;;;5008089;28;20034;-82
2024/01/29 02:42:30;;;;;;;4.85;3.25;;;;;;;;;;4994897;28;20061;-84
2024/01/29 02:44:56;;;;;;;5.63;3.53;;;;;;;;;;4994238;28;20037;-84
2024/01/29 02:47:22;;;;;;;7.15;3.72;;;;;;;;;;5008683;28;20117;-81
2024/01/29 02:49:48;;;;;;;7.22;3.95;;;;;;;;;;5007618;28;20041;-81
2024/01/29 02:52:14;;;;;;;5.68;3.65;;;;;;;;;;5007831;28;20026;-84
2024/01/29 02:54:40;;;;;;;7.47;3.67;;;;;;;;;;5026502;28;20397;-83
2024/01/29 02:57:07;;;;;;;7.80;3.97;;;;;;;;;;5007844;28;20041;-82
2024/01/29 02:59:33;;;;;;;6.60;3.55;;;;;;;;;;5014519;28;20068;-84
2024/01/29 03:02:00;;;;;;;7.72;4.13;;;;;;;;;;5003254;28;20034;-85
2024/01/29 03:04:26;;;;;;;5.93;3.38;;;;;;;;;;5002959;28;20044;-83
2024/01/29 03:06:52;;;;;;;5.93;3.33;;;;;;;;;;5007459;28;20048;-84
2024/01/29 03:09:18;;;;;;;6.72;3.70;;;;;;;;;;5001534;28;20042;-83
2024/01/29 03:11:45;;;;;;;8.70;4.18;;;;;;;;;;5008519;28;20037;-82
2024/01/29 03:14:11;;;;;;;8.13;3.65;;;;;;;;;;5010212;28;20037;-83
2024/01/29 03:16:37;;;;;;;7.75;3.90;;;;;;;;;;5009125;28;20038;-82
2024/01/29 03:19:03;;;;;;;6.75;4.15;;;;;;;;;;5012501;28;20029;-83
2024/01/29 03:21:29;;;;;;;5.63;3.85;;;;;;;;;;5009136;28;20479;-84
2024/01/29 03:23:56;;;;;;;9.60;3.53;;;;;;;;;;4997213;28;20030;-84
2024/01/29 03:26:22;;;;;;;6.75;3.80;;;;;;;;;;5002844;28;20030;-83
2024/01/29 03:28:48;;;;;;;6.18;3.58;;;;;;;;;;4991219;28;20036;-82
2024/01/29 03:31:14;;;;;;;7.95;3.65;;;;;;;;;;4996708;28;20554;-82
2024/01/29 03:33:40;;;;;;;5.50;3.53;;;;;;;;;;4999057;28;20034;-82
2024/01/29 03:36:07;;;;;;;5.80;3.40;;;;;;;;;;5008533;28;20018;-82
2024/01/29 03:38:33;;;;;;;8.73;4.15;;;;;;;;;;5004827;28;20045;-83
2024/01/29 03:40:59;;;;;;;9.25;4.00;;;;;;;;;;5036628;28;20034;-82
2024/01/29 03:43:26;;;;;;;7.13;3.95;;;;;;;;;;5003683;28;20438;-84
2024/01/29 03:45:53;;;;;;;7.40;4.25;;;;;;;;;;4996780;28;20033;-85
2024/01/29 03:48:19;;;;;;;6.93;3.90;;;;;;;;;;5006869;28;20464;-83
2024/01/29 03:50:45;;;;;;;7.57;5.00;;;;;;;;;;5009052;28;20033;-84
2024/01/29 03:53:11;;;;;;;7.55;3.72;;;;;;;;;;4997619;28;20042;-84
2024/01/29 03:55:37;;;;;;;8.93;4.18;;;;;;;;;;5005243;28;20465;-89
2024/01/29 03:58:03;;;;;;;7.38;4.60;;;;;;;;;;5002999;28;20033;-83
2024/01/29 04:00:30;;;;;;;8.32;4.97;;;;;;;;;;5008836;28;20041;-83
2024/01/29 04:02:56;;;;;;;9.20;4.22;;;;;;;;;;5000445;28;20045;-84
2024/01/29 04:05:22;;;;;;;7.13;3.70;;;;;;;;;;5004822;28;20045;-84
2024/01/29 04:07:49;;;;;;;5.50;3.88;;;;;;;;;;5006959;28;20054;-83
2024/01/29 04:10:18;;;;;;;5.32;3.45;;;;;;;;;;5001227;28;20084;-86
2024/01/29 04:12:44;;;;;;;7.10;4.20;;;;;;;;;;5002511;28;20476;-84
2024/01/29 04:15:10;;;;;;;7.35;3.50;;;;;;;;;;4997296;28;20034;-84
2024/01/29 04:17:36;;;;;;;7.32;3.92;;;;;;;;;;5017609;28;20017;-86
2024/01/29 04:20:05;;;;;;;7.53;4.57;;;;;;;;;;4992467;28;20030;-84
2024/01/29 04:22:32;;;;;;;6.47;3.95;;;;;;;;;;5023757;28;20076;-84
2024/01/29 04:24:59;;;;;;;19.98;4.75;;;;;;;;;;4993792;28;20030;-84
2024/01/29 04:27:25;;;;;;;8.07;4.50;;;;;;;;;;5002058;28;20477;-85
2024/01/29 04:29:51;;;;;;;10.25;4.47;;;;;;;;;;4998886;28;20076;-84
2024/01/29 04:32:17;;;;;;;8.57;4.18;;;;;;;;;;5006425;28;20030;-83
2024/01/29 04:34:43;;;;;;;11.98;4.18;;;;;;;;;;4998229;28;20037;-85
2024/01/29 04:37:09;;;;;;;6.65;3.97;;;;;;;;;;4990773;28;20107;-85
2024/01/29 04:39:38;;;;;;;11.60;4.72;;;;;;;;;;4990480;28;20038;-85
2024/01/29 04:42:05;;;;;;;7.65;4.25;;;;;;;;;;4992107;28;20047;-82
2024/01/29 04:44:31;;;;;;;5.97;4.07;;;;;;;;;;5000617;28;20073;-83
2024/01/29 04:46:58;;;;;;;6.35;3.97;;;;;;;;;;5005204;28;20471;-84
2024/01/29 04:49:24;;;;;;;8.90;4.20;;;;;;;;;;5007942;28;20046;-82
2024/01/29 04:51:50;;;;;;;6.25;4.50;;;;;;;;;;4996395;28;20387;-83
2024/01/29 04:54:17;;;;;;;8.75;3.80;;;;;;;;;;5002060;28;20026;-82
2024/01/29 04:56:43;;;;;;;9.20;3.72;;;;;;;;;;5002945;28;20029;-82
2024/01/29 04:59:09;;;;;;;9.05;4.65;;;;;;;;;;4996218;28;20475;-81
2024/01/29 05:01:35;;;;;;;5.72;3.90;;;;;;;;;;5006259;28;21006;-83
2024/01/29 05:04:01;;;;;;;10.32;4.38;;;;;;;;;;5007102;28;20571;-83
2024/01/29 05:06:27;;;;;;;6.05;4.53;;;;;;;;;;5004424;28;20113;-82
2024/01/29 05:08:53;;;;;;;8.63;5.07;;;;;;;;;;5007361;28;20046;-83
2024/01/29 05:11:19;;;;;;;8.38;4.38;;;;;;;;;;5000686;28;20058;-84
2024/01/29 05:13:45;;;;;;;7.00;4.18;;;;;;;;;;4993667;28;20026;-83
2024/01/29 05:16:11;;;;;;;9.50;4.28;;;;;;;;;;5006407;28;20112;-84
2024/01/29 05:18:37;;;;;;;9.35;4.75;;;;;;;;;;5012212;28;20088;-83
2024/01/29 05:21:04;;;;;;;7.38;4.35;;;;;;;;;;5011132;28;20037;-86
2024/01/29 05:23:30;;;;;;;8.60;5.13;;;;;;;;;;5007781;28;20133;-83
2024/01/29 05:25:56;;;;;;;9.43;4.70;;;;;;;;;;4999137;28;20060;-84
2024/01/29 05:28:22;;;;;;;9.77;4.90;;;;;;;;;;5002637;28;20025;-84
2024/01/29 05:30:48;;;;;;;7.53;4.55;;;;;;;;;;5005807;28;20029;-83
2024/01/29 05:33:14;;;;;;;7.40;5.47;;;;;;;;;;5026184;28;20029;-83
2024/01/29 05:35:40;;;;;;;7.95;4.60;;;;;;;;;;5006064;28;20022;-83
2024/01/29 05:38:06;;;;;;;7.95;4.63;;;;;;;;;;5009479;28;20029;-83
2024/01/29 05:40:32;;;;;;;5.32;4.68;;;;;;;;;;5012181;28;20030;-83
2024/01/29 05:42:58;;;;;;;6.20;4.22;;;;;;;;;;5005074;28;20038;-82
2024/01/29 05:45:24;;;;;;;7.75;5.18;;;;;;;;;;5019209;28;20042;-83
2024/01/29 05:47:51;;;;;;;11.75;5.38;;;;;;;;;;5007013;28;20041;-79
2024/01/29 05:50:17;;;;;;;10.15;4.88;;;;;;;;;;5008281;28;20037;-82
2024/01/29 05:52:43;;;;;;;11.55;5.93;;;;;;;;;;5004745;28;20036;-85
2024/01/29 05:55:09;;;;;;;10.02;4.47;;;;;;;;;;5014758;28;20026;-82
2024/01/29 05:57:36;;;;;;;11.68;5.45;;;;;;;;;;5008988;28;20504;-83
2024/01/29 06:00:03;;;;;;;117.20;72.57;;;;;;;;;;5006871;28;20038;-79
2024/01/29 06:02:29;;;;;;;52.65;26.88;;;;;;;;;;5003473;28;20034;-77
2024/01/29 06:04:55;;;;;;;15.27;9.32;;;;;;;;;;5010889;28;20030;-84
2024/01/29 06:07:21;;;;;;;7.40;4.57;;;;;;;;;;5012840;28;20026;-85
2024/01/29 06:09:47;;;;;;;9.35;4.68;;;;;;;;;;5013181;28;20395;-81
2024/01/29 06:12:13;;;;;;;8.25;4.28;;;;;;;;;;5021645;28;20507;-82
2024/01/29 06:14:39;;;;;;;9.23;4.55;;;;;;;;;;5019726;28;20034;-82
2024/01/29 06:17:05;;;;;;;9.27;5.30;;;;;;;;;;5006611;28;20040;-81
2024/01/29 06:19:31;;;;;;;8.98;5.00;;;;;;;;;;5005633;28;20037;-79
2024/01/29 06:21:57;;;;;;;9.88;4.68;;;;;;;;;;5009691;28;20027;-81
2024/01/29 06:24:23;;;;;;;8.05;4.93;;;;;;;;;;5015498;28;20137;-82
2024/01/29 06:26:49;;;;;;;8.25;4.72;;;;;;;;;;5012790;28;20076;-80
2024/01/29 06:29:15;;;;;;;8.48;5.78;;;;;;;;;;5007175;28;20105;-83
2024/01/29 06:31:42;;;;;;;10.73;6.57;;;;;;;;;;5000803;28;20035;-81
2024/01/29 06:34:08;;;;;;;9.73;5.25;;;;;;;;;;5000476;28;20037;-79
2024/01/29 06:36:34;;;;;;;10.30;5.28;;;;;;;;;;5009616;28;20141;-80
2024/01/29 06:39:00;;;;;;;9.95;5.53;;;;;;;;;;5021765;28;20061;-78
2024/01/29 06:41:26;;;;;;;6.50;5.13;;;;;;;;;;5009419;28;20034;-78
2024/01/29 06:43:54;;;;;;;10.45;5.07;;;;;;;;;;5000675;28;20033;-79
2024/01/29 06:46:20;;;;;;;8.60;5.32;;;;;;;;;;5001854;28;20046;-82
2024/01/29 06:48:47;;;;;;;9.90;5.25;;;;;;;;;;4999738;28;20073;-78
2024/01/29 06:51:15;;;;;;;10.70;5.97;;;;;;;;;;5002353;28;20045;-81
2024/01/29 06:53:41;;;;;;;10.30;6.10;;;;;;;;;;5007460;28;20035;-78
2024/01/29 06:56:07;;;;;;;10.88;5.60;;;;;;;;;;5010447;28;20113;-79
2024/01/29 06:58:36;;;;;;;8.52;4.80;;;;;;;;;;5007286;28;20096;-80
2024/01/29 07:01:02;;;;;;;8.77;5.43;;;;;;;;;;5015652;28;20022;-80
2024/01/29 07:03:28;;;;;;;8.95;5.82;;;;;;;;;;5010151;28;20030;-81
2024/01/29 07:05:55;;;;;;;9.63;5.72;;;;;;;;;;5008053;28;20084;-79
2024/01/29 07:08:21;;;;;;;9.25;4.97;;;;;;;;;;5008430;28;20050;-77
2024/01/29 07:10:47;;;;;;;11.35;5.68;;;;;;;;;;5007031;28;20142;-78
2024/01/29 07:13:13;;;;;;;11.55;5.50;;;;;;;;;;4990823;28;20416;-79
2024/01/29 07:15:40;;;;;;;9.80;6.63;;;;;;;;;;5000264;28;20066;-78
2024/01/29 07:18:06;;;;;;;6.82;5.10;;;;;;;;;;5000620;28;20101;-81
2024/01/29 07:20:38;;;;;;;8.40;5.20;;;;;;;;;;5020872;28;20060;-80
2024/01/29 07:23:08;;;;;;;12.60;7.07;;;;;;;;;;5009288;28;20041;-80
2024/01/29 07:25:34;;;;;;;9.75;5.95;;;;;;;;;;5000242;28;20384;-82
2024/01/29 07:28:03;;;;;;;12.02;6.93;;;;;;;;;;4997462;28;20034;-78
2024/01/29 07:30:29;;;;;;;10.43;6.63;;;;;;;;;;5003147;28;20030;-79
2024/01/29 07:32:55;;;;;;;12.23;7.38;;;;;;;;;;5010304;28;20524;-78
2024/01/29 07:35:21;;;;;;;13.95;6.20;;;;;;;;;;5004919;28;20652;-81
2024/01/29 07:37:47;;;;;;;14.32;6.72;;;;;;;;;;5005957;28;20483;-79
2024/01/29 07:40:14;;;;;;;15.43;7.28;;;;;;;;;;5020887;28;20041;-79
2024/01/29 07:42:40;;;;;;;10.02;6.47;;;;;;;;;;5004373;28;20151;-79
2024/01/29 07:45:06;;;;;;;11.10;6.45;;;;;;;;;;5007606;28;20037;-84
2024/01/29 07:47:32;;;;;;;9.02;6.03;;;;;;;;;;5005220;28;20329;-84
2024/01/29 07:49:58;;;;;;;9.65;6.80;;;;;;;;;;5005791;28;20479;-81
2024/01/29 07:52:24;;;;;;;10.90;7.03;;;;;;;;;;5001427;28;20030;-82
2024/01/29 07:54:50;;;;;;;11.57;6.28;;;;;;;;;;5009627;28;20072;-81
2024/01/29 07:57:16;;;;;;;10.40;6.60;;;;;;;;;;5023375;28;20025;-83
2024/01/29 07:59:44;;;;;;;27.17;16.17;;;;;;;;;;5003679;28;20034;-82
2024/01/29 08:02:10;;;;;;;10.45;6.72;;;;;;;;;;5006520;28;20076;-81
2024/01/29 08:04:36;;;;;;;9.13;5.60;;;;;;;;;;5029076;28;20125;-84
2024/01/29 08:07:02;;;;;;;9.43;6.00;;;;;;;;;;4996114;28;20062;-82
2024/01/29 08:09:28;;;;;;;10.18;6.63;;;;;;;;;;5021148;28;20092;-82
2024/01/29 08:11:54;;;;;;;10.13;6.45;;;;;;;;;;5005875;28;20033;-82
2024/01/29 08:14:21;;;;;;;14.55;6.68;;;;;;;;;;4997298;28;20026;-82
2024/01/29 08:16:47;;;;;;;11.68;7.63;;;;;;;;;;5002207;28;20029;-81
2024/01/29 08:19:13;;;;;;;11.95;7.15;;;;;;;;;;5006321;28;20522;-82
2024/01/29 08:21:39;;;;;;;10.15;6.30;;;;;;;;;;5021219;28;20363;-81
2024/01/29 08:24:05;;;;;;;12.23;6.80;;;;;;;;;;5005955;28;20022;-84
2024/01/29 08:26:31;;;;;;;13.23;8.88;;;;;;;;;;4997254;28;20081;-81
2024/01/29 08:28:58;;;;;;;9.15;7.10;;;;;;;;;;5006478;28;20053;-81
2024/01/29 08:31:24;;;;;;;8.60;6.05;;;;;;;;;;5001582;28;20068;-82
2024/01/29 08:33:51;;;;;;;10.23;6.25;;;;;;;;;;5004293;28;20160;-83
2024/01/29 08:36:20;;;;;;;12.68;6.72;;;;;;;;;;5007551;28;20030;-81
2024/01/29 08:38:46;;;;;;;12.70;6.05;;;;;;;;;;5002590;28;20462;-83
2024/01/29 08:41:12;;;;;;;11.48;7.05;;;;;;;;;;5005063;28;20052;-83
2024/01/29 08:43:38;;;;;;;13.52;7.55;;;;;;;;;;5000323;28;20080;-89
2024/01/29 08:46:04;;;;;;;11.20;6.85;;;;;;;;;;5002352;28;20052;-83
2024/01/29 08:48:31;;;;;;;10.70;7.68;;;;;;;;;;5007240;28;20038;-81
2024/01/29 08:50:57;;;;;;;11.27;7.72;;;;;;;;;;5008469;28;20042;-82
2024/01/29 08:53:23;;;;;;;12.35;6.75;;;;;;;;;;5003766;28;20046;-83
2024/01/29 08:55:49;;;;;;;11.75;7.22;;;;;;;;;;5010928;28;20488;-82
2024/01/29 08:58:15;;;;;;;11.45;6.70;;;;;;;;;;5006633;28;20423;-84
2024/01/29 09:00:41;;;;;;;10.18;7.15;;;;;;;;;;5006776;28;20080;-84
2024/01/29 09:03:09;;;;;;;18.85;10.68;;;;;;;;;;5013025;28;20033;-83
2024/01/29 09:05:35;;;;;;;9.80;6.55;;;;;;;;;;5010770;28;20038;-81
2024/01/29 09:08:01;;;;;;;9.88;6.30;;;;;;;;;;5006947;28;20061;-81
2024/01/29 09:10:27;;;;;;;10.40;6.00;;;;;;;;;;5009384;28;20108;-80
2024/01/29 09:12:53;;;;;;;10.40;6.55;;;;;;;;;;4999173;28;20543;-80
2024/01/29 09:15:19;;;;;;;8.55;6.18;;;;;;;;;;5000177;28;20392;-80
2024/01/29 09:17:46;;;;;;;13.82;7.00;;;;;;;;;;5009480;28;20025;-80
2024/01/29 09:20:12;;;;;;;12.32;6.95;;;;;;;;;;5008560;28;20774;-79
2024/01/29 09:22:38;;;;;;;10.95;7.57;;;;;;;;;;4998336;28;20026;-79
2024/01/29 09:25:06;;;;;;;10.95;6.90;;;;;;;;;;5000845;28;20038;-81
2024/01/29 09:27:32;;;;;;;13.48;7.60;;;;;;;;;;5006685;28;20033;-79
2024/01/29 09:29:58;;;;;;;10.38;6.15;;;;;;;;;;5012265;28;20467;-80
2024/01/29 09:32:24;;;;;;;12.93;7.13;;;;;;;;;;5011250;28;20515;-81
2024/01/29 09:34:50;;;;;;;14.75;7.07;;;;;;;;;;4998768;28;20062;-83
2024/01/29 09:37:20;;;;;;;15.23;7.50;;;;;;;;;;4999749;28;20041;-84
2024/01/29 09:39:46;;;;;;;13.60;7.22;;;;;;;;;;5010718;28;20083;-80
2024/01/29 09:42:17;;;;;;;10.65;7.47;;;;;;;;;;5016581;28;20068;-79
2024/01/29 09:44:45;;;;;;;11.60;7.40;;;;;;;;;;4997006;28;20130;-79
2024/01/29 09:47:11;;;;;;;13.95;8.25;;;;;;;;;;5017443;28;20124;-82
2024/01/29 09:49:38;;;;;;;13.55;7.47;;;;;;;;;;4999101;28;20092;-80
2024/01/29 09:52:04;;;;;;;12.32;8.02;;;;;;;;;;5013059;28;20041;-80
2024/01/29 09:54:34;;;;;;;12.93;8.05;;;;;;;;;;5011919;28;20549;-81
2024/01/29 09:57:00;;;;;;;15.10;7.38;;;;;;;;;;5021968;28;20518;-80
2024/01/29 09:59:26;;;;;;;12.90;8.20;;;;;;;;;;5000653;28;20036;-84
2024/01/29 10:01:52;;;;;;;16.63;8.10;;;;;;;;;;4997750;28;20077;-81
2024/01/29 10:04:21;;;;;;;17.00;8.77;;;;;;;;;;5003195;28;20048;-80
2024/01/29 10:06:47;;;;;;;13.38;9.25;;;;;;;;;;4998452;28;20047;-82
2024/01/29 10:09:15;;;;;;;17.85;10.35;;;;;;;;;;5011397;28;20046;-81
2024/01/29 10:11:42;;;;;;;16.08;8.45;;;;;;;;;;5004814;28;20061;-81
2024/01/29 10:14:08;;;;;;;19.92;10.18;;;;;;;;;;5005862;28;20029;-80
2024/01/29 10:16:35;;;;;;;11.93;8.55;;;;;;;;;;5007587;28;20406;-80
2024/01/29 10:19:01;;;;;;;14.38;8.55;;;;;;;;;;5023877;28;20022;-80
2024/01/29 10:21:32;;;;;;;13.55;8.55;;;;;;;;;;4999157;28;20026;-80
2024/01/29 10:23:59;;;;;;;15.20;9.73;;;;;;;;;;5003111;28;20034;-79
2024/01/29 10:26:25;;;;;;;13.50;8.73;;;;;;;;;;5001174;28;20034;-81
2024/01/29 10:29:01;;;;;;;17.42;9.30;;;;;;;;;;5006372;28;20033;-81
2024/01/29 10:31:27;;;;;;;18.75;9.15;;;;;;;;;;5009330;28;20475;-84
2024/01/29 10:33:54;;;;;;;19.10;10.68;;;;;;;;;;5001279;28;20022;-83
2024/01/29 10:36:21;;;;;;;16.80;9.68;;;;;;;;;;5002990;28;20387;-81
2024/01/29 10:38:47;;;;;;;15.65;9.77;;;;;;;;;;5001265;28;20033;-82
2024/01/29 10:41:17;;;;;;;18.83;10.07;;;;;;;;;;5005905;28;20085;-81
2024/01/29 10:43:45;;;;;;;18.25;10.70;;;;;;;;;;5005849;28;20060;-81
2024/01/29 10:46:13;;;;;;;30.02;13.10;;;;;;;;;;5004063;28;20377;-83
2024/01/29 10:48:39;;;;;;;78.82;38.85;;;;;;;;;;5001596;28;20030;-79
2024/01/29 10:51:06;;;;;;;18.23;10.80;;;;;;;;;;5004251;28;20494;-80
2024/01/29 10:53:33;;;;;;;15.25;10.20;;;;;;;;;;5003351;28;20593;-81
2024/01/29 10:55:59;;;;;;;15.57;8.90;;;;;;;;;;4993975;28;20023;-81
2024/01/29 10:58:25;;;;;;;19.88;9.95;;;;;;;;;;4999978;28;20052;-81
2024/01/29 11:00:52;;;;;;;19.08;9.45;;;;;;;;;;5005680;28;20030;-80
2024/01/29 11:03:21;;;;;;;21.35;9.93;;;;;;;;;;5006384;28;20372;-80
2024/01/29 11:05:54;;;;;;;15.57;9.02;;;;;;;;;;4999855;28;20065;-80
2024/01/29 11:08:25;;;;;;;18.20;10.35;;;;;;;;;;5007309;28;20062;-80
2024/01/29 11:10:52;;;;;;;19.25;10.05;;;;;;;;;;4997791;28;20786;-83
2024/01/29 11:13:19;;;;;;;18.98;9.10;;;;;;;;;;4993538;28;20038;-81
2024/01/29 11:15:45;;;;;;;14.63;9.55;;;;;;;;;;4991004;28;20042;-86
2024/01/29 11:18:12;;;;;;;16.23;10.30;;;;;;;;;;5000526;28;20536;-83
2024/01/29 11:20:39;;;;;;;22.63;10.60;;;;;;;;;;4996417;28;20045;-83
2024/01/29 11:23:06;;;;;;;18.55;10.57;;;;;;;;;;5003501;28;20452;-81
2024/01/29 11:25:32;;;;;;;22.13;10.82;;;;;;;;;;4995980;28;20522;-81
2024/01/29 11:28:00;;;;;;;19.42;10.25;;;;;;;;;;5005583;28;20033;-81
2024/01/29 11:30:27;;;;;;;18.10;10.13;;;;;;;;;;5005047;28;20859;-85
2024/01/29 11:32:55;;;;;;;16.45;10.27;;;;;;;;;;4999407;28;20030;-85
2024/01/29 11:35:22;;;;;;;43.75;26.75;;;;;;;;;;5005329;28;20076;-81
2024/01/29 11:37:49;;;;;;;18.77;10.30;;;;;;;;;;4999893;28;20049;-85
2024/01/29 11:40:34;;;;;;;18.05;10.98;;;;;;;;;;5002282;28;20400;-81
2024/01/29 11:43:00;;;;;;;28.70;12.60;;;;;;;;;;5001569;28;20322;-81
2024/01/29 11:45:32;;;;;;;24.25;12.20;;;;;;;;;;4999032;28;20104;-83
2024/01/29 11:47:59;;;;;;;21.52;12.10;;;;;;;;;;5003589;28;20105;-82
2024/01/29 11:50:25;;;;;;;31.02;14.10;;;;;;;;;;5010127;28;20379;-85
2024/01/29 11:52:52;;;;;;;25.85;11.82;;;;;;;;;;5004081;28;20029;-84
2024/01/29 11:55:21;;;;;;;29.48;12.30;;;;;;;;;;5010506;28;20061;-82
2024/01/29 11:57:47;;;;;;;53.95;19.35;;;;;;;;;;5004652;28;20049;-79
2024/01/29 12:00:21;;;;;;;60.28;21.63;;;;;;;;;;5000471;28;20041;-86
2024/01/29 12:02:48;;;;;;;39.78;15.50;;;;;;;;;;5010683;28;20118;-81
2024/01/29 12:05:16;;;;;;;44.25;18.58;;;;;;;;;;5007261;28;20053;-84
2024/01/29 12:07:42;;;;;;;59.22;26.92;;;;;;;;;;5003206;28;20391;-82
2024/01/29 12:10:09;;;;;;;31.60;16.00;;;;;;;;;;5004845;28;20042;-82
2024/01/29 12:12:35;;;;;;;40.17;17.50;;;;;;;;;;4995933;28;20116;-81
2024/01/29 12:15:01;;;;;;;34.75;13.57;;;;;;;;;;5000763;28;20034;-84
2024/01/29 12:17:28;;;;;;;38.88;14.68;;;;;;;;;;4995813;28;20092;-83
2024/01/29 12:19:54;;;;;;;44.97;15.93;;;;;;;;;;4989518;28;20033;-82
2024/01/29 12:22:20;;;;;;;32.08;13.20;;;;;;;;;;5000347;28;20066;-82
2024/01/29 12:24:46;;;;;;;36.22;12.30;;;;;;;;;;5005269;28;20030;-83
2024/01/29 12:27:14;;;;;;;36.10;14.52;;;;;;;;;;5011701;28;20498;-83
2024/01/29 12:29:40;;;;;;;35.03;14.07;;;;;;;;;;5004503;28;20536;-82
2024/01/29 12:32:11;;;;;;;29.40;12.90;;;;;;;;;;5010017;28;20116;-84
2024/01/29 12:34:47;;;;;;;26.63;12.60;;;;;;;;;;5009404;28;20495;-83
2024/01/29 12:37:25;;;;;;;20.85;11.48;;;;;;;;;;5012279;28;20387;-84
2024/01/29 12:39:55;;;;;;;22.20;11.02;;;;;;;;;;5001178;28;20036;-82
2024/01/29 12:42:21;;;;;;;25.67;12.52;;;;;;;;;;5003007;28;20089;-83
2024/01/29 12:44:48;;;;;;;18.40;11.10;;;;;;;;;;5012587;28;20120;-84
2024/01/29 12:47:18;;;;;;;17.20;11.27;;;;;;;;;;5009736;28;20140;-83
2024/01/29 12:49:46;;;;;;;21.42;11.50;;;;;;;;;;5010671;28;20033;-81
2024/01/29 12:52:12;;;;;;;22.00;13.48;;;;;;;;;;5002677;28;20032;-82
2024/01/29 12:54:38;;;;;;;26.08;14.10;;;;;;;;;;5013422;28;20029;-82
2024/01/29 12:57:07;;;;;;;26.80;13.43;;;;;;;;;;5013173;28;20054;-82
2024/01/29 12:59:33;;;;;;;29.70;14.30;;;;;;;;;;5009908;28;20597;-82
2024/01/29 13:02:00;;;;;;;30.77;15.18;;;;;;;;;;5013043;28;20056;-82
2024/01/29 13:04:26;;;;;;;22.38;12.95;;;;;;;;;;5012785;28;20026;-82
2024/01/29 13:06:52;;;;;;;27.48;13.25;;;;;;;;;;5013244;28;20062;-83
2024/01/29 13:09:19;;;;;;;24.80;14.35;;;;;;;;;;5009512;28;20050;-83
2024/01/29 13:11:46;;;;;;;25.48;14.57;;;;;;;;;;5001240;28;20030;-83
2024/01/29 13:14:12;;;;;;;30.23;15.90;;;;;;;;;;5011512;28;20033;-81
2024/01/29 13:16:38;;;;;;;32.92;14.63;;;;;;;;;;5011532;28;20037;-82
2024/01/29 13:19:05;;;;;;;27.55;13.80;;;;;;;;;;5008275;28;20103;-83
2024/01/29 13:21:31;;;;;;;41.33;20.27;;;;;;;;;;5009257;28;20393;-82
2024/01/29 13:23:57;;;;;;;47.10;22.02;;;;;;;;;;5013061;28;20022;-82
2024/01/29 13:26:26;;;;;;;76.47;28.67;;;;;;;;;;5014696;28;20110;-81
2024/01/29 13:28:52;;;;;;;92.05;32.13;;;;;;;;;;5015862;28;20034;-81
2024/01/29 13:31:18;;;;;;;141.40;40.65;;;;;;;;;;5010121;28;20061;-82
2024/01/29 13:33:45;;;;;;;122.10;36.17;;;;;;;;;;5005027;28;20226;-82
2024/01/29 13:36:11;;;;;;;84.65;37.38;;;;;;;;;;5006358;28;20029;-79
2024/01/29 13:38:37;;;;;;;66.32;38.92;;;;;;;;;;5002222;28;20217;-81
2024/01/29 13:41:03;;;;;;;23.05;13.65;;;;;;;;;;4991843;28;20103;-84
2024/01/29 13:43:29;;;;;;;24.10;13.77;;;;;;;;;;5008902;28;20108;-82
2024/01/29 13:45:55;;;;;;;26.45;15.73;;;;;;;;;;5017134;28;20038;-79
2024/01/29 13:48:22;;;;;;;24.77;14.38;;;;;;;;;;5008062;28;20113;-82
2024/01/29 13:50:48;;;;;;;27.27;15.52;;;;;;;;;;5011800;28;20102;-81
2024/01/29 13:53:14;;;;;;;26.00;15.32;;;;;;;;;;5011420;28;20029;-81
2024/01/29 13:55:40;;;;;;;24.20;14.25;;;;;;;;;;5002947;28;20064;-79
2024/01/29 13:58:06;;;;;;;39.53;23.00;;;;;;;;;;4993802;28;20035;-80
2024/01/29 14:00:32;;;;;;;19.58;13.25;;;;;;;;;;4995806;28;20022;-82
2024/01/29 14:02:59;;;;;;;24.40;14.23;;;;;;;;;;5017917;28;20391;-77
2024/01/29 14:10:51;;;;;;;21.17;12.25;;;;;;;;;;5627240;23;20502;-76
2024/01/29 14:13:17;;;;;;;23.13;12.65;;;;;;;;;;4960933;28;20081;-78
2024/01/29 14:15:43;;;;;;;23.55;13.13;;;;;;;;;;4963401;28;20035;-78
2024/01/29 14:18:10;;;;;;;19.20;11.88;;;;;;;;;;4957450;28;20450;-75
2024/01/29 14:20:36;;;;;;;17.90;11.10;;;;;;;;;;4962900;28;20523;-74
2024/01/29 14:23:05;;;;;;;19.05;12.43;;;;;;;;;;4959083;28;20035;-75
2024/01/29 14:25:33;;;;;;;18.55;12.13;;;;;;;;;;4963159;28;20484;-74
2024/01/29 14:27:59;;;;;;;15.07;10.75;;;;;;;;;;4957104;28;20024;-75
2024/01/29 14:30:25;;;;;;;19.17;12.73;;;;;;;;;;4959288;28;20111;-73
2024/01/29 14:32:51;;;;;;;18.65;11.82;;;;;;;;;;4957301;28;20511;-73
2024/01/29 14:35:18;;;;;;;20.23;12.40;;;;;;;;;;4969150;28;20035;-73